Time;durP1;ratioP1;P1;durP2;ratioP2;P2;SDS_P1;SDS_P2;PMS_P1;PMS_P2;Temp;Humidity;BMP_temperature;BMP_pressure;BME280_temperature;BME280_humidity;BME280_pressure;Samples;Min_cycle;Max_cycle;Signal;HPM_P1;HPM_P2
2022/02/22 00:02:23;;;;;;;39.03;20.23;;;;;;;1.88;89.79;99330.58;1426429;89;22482;-80
2022/02/22 00:04:49;;;;;;;41.63;19.77;;;;;;;1.87;89.50;99328.90;1426505;91;21595;-80
2022/02/22 00:07:15;;;;;;;38.50;20.17;;;;;;;1.82;89.43;99333.19;1430400;91;21614;-80
2022/02/22 00:09:42;;;;;;;37.47;20.70;;;;;;;1.76;89.52;99330.58;1424203;91;22068;-80
2022/02/22 00:12:09;;;;;;;42.03;22.07;;;;;;;1.69;89.49;99325.45;1438528;89;21436;-80
2022/02/22 00:14:35;;;;;;;39.77;21.03;;;;;;;1.64;89.07;99331.97;1424647;91;21756;-81
2022/02/22 00:17:02;;;;;;;36.37;20.37;;;;;;;1.57;89.30;99331.63;1432135;89;21746;-81
2022/02/22 00:19:28;;;;;;;34.27;19.67;;;;;;;1.52;89.09;99331.95;1429905;89;21569;-81
2022/02/22 00:21:56;;;;;;;40.87;21.77;;;;;;;1.49;89.32;99336.59;1428363;89;22423;-81
2022/02/22 00:24:22;;;;;;;38.37;20.83;;;;;;;1.47;88.98;99338.50;1426835;89;22414;-80
2022/02/22 00:26:49;;;;;;;40.23;22.10;;;;;;;1.46;89.05;99347.25;1437454;89;21611;-81
2022/02/22 00:29:15;;;;;;;44.03;23.07;;;;;;;1.42;89.08;99347.14;1433077;89;21414;-81
2022/02/22 00:31:42;;;;;;;40.73;21.53;;;;;;;1.39;89.20;99346.89;1428853;89;22442;-81
2022/02/22 00:34:08;;;;;;;39.77;23.83;;;;;;;1.37;89.64;99342.25;1435109;89;21643;-81
2022/02/22 00:36:35;;;;;;;38.13;22.13;;;;;;;1.32;90.31;99354.35;1419008;89;21548;-81
2022/02/22 00:39:04;;;;;;;41.63;21.57;;;;;;;1.30;90.02;99351.02;1424532;89;21535;-81
2022/02/22 00:41:32;;;;;;;36.17;21.83;;;;;;;1.29;89.93;99357.16;1417116;89;22718;-81
2022/02/22 00:43:58;;;;;;;31.43;17.73;;;;;;;1.28;89.83;99355.51;1419966;89;21580;-81
2022/02/22 00:46:24;;;;;;;41.20;21.33;;;;;;;1.23;90.01;99349.80;1414973;89;21557;-81
2022/02/22 00:48:51;;;;;;;51.53;22.27;;;;;;;1.24;89.51;99354.09;1406097;91;21663;-81
2022/02/22 00:51:17;;;;;;;51.10;25.10;;;;;;;1.22;89.47;99353.36;1424370;90;21891;-79
2022/02/22 00:53:43;;;;;;;50.43;23.40;;;;;;;1.20;89.55;99350.03;1435481;90;21541;-80
2022/02/22 00:56:09;;;;;;;59.60;28.87;;;;;;;1.17;89.60;99351.56;1430141;91;21728;-80
2022/02/22 00:58:36;;;;;;;58.27;26.27;;;;;;;1.10;89.48;99354.28;1429578;90;21621;-80
2022/02/22 01:01:02;;;;;;;48.33;24.70;;;;;;;1.02;89.34;99353.53;1443059;90;21494;-80
2022/02/22 01:03:28;;;;;;;33.93;19.70;;;;;;;0.98;89.79;99352.11;1447806;90;21738;-80
2022/02/22 01:05:54;;;;;;;38.57;19.10;;;;;;;0.94;89.30;99351.14;1448954;90;21711;-80
2022/02/22 01:08:20;;;;;;;35.13;18.47;;;;;;;0.89;89.16;99344.50;1437547;90;21666;-79
2022/02/22 01:10:46;;;;;;;39.57;20.93;;;;;;;0.84;89.33;99344.48;1424693;90;21703;-80
2022/02/22 01:13:14;;;;;;;36.23;18.40;;;;;;;0.78;89.36;99337.94;1438979;90;22640;-80
2022/02/22 01:15:41;;;;;;;39.07;20.43;;;;;;;0.71;89.51;99341.91;1435670;90;21592;-80
2022/02/22 01:18:07;;;;;;;37.67;19.73;;;;;;;0.64;89.41;99340.72;1444524;90;21644;-80
2022/02/22 01:20:34;;;;;;;40.27;20.47;;;;;;;0.57;89.70;99339.48;1441765;90;22521;-80
2022/02/22 01:23:00;;;;;;;40.43;22.67;;;;;;;0.54;89.34;99346.21;1436107;90;21562;-80
2022/02/22 01:25:26;;;;;;;37.00;17.87;;;;;;;0.50;89.14;99357.33;1448701;90;21687;-80
2022/02/22 01:27:54;;;;;;;38.00;19.33;;;;;;;0.50;89.43;99352.11;1440930;90;21643;-79
2022/02/22 01:30:21;;;;;;;40.40;23.57;;;;;;;0.52;89.45;99353.30;1438641;90;21586;-79
2022/02/22 01:32:47;;;;;;;40.00;21.57;;;;;;;0.50;89.47;99356.02;1441826;90;22593;-80
2022/02/22 01:35:13;;;;;;;32.53;19.03;;;;;;;0.49;89.83;99343.95;1446789;90;21559;-80
2022/02/22 01:37:40;;;;;;;40.50;19.53;;;;;;;0.48;89.59;99346.18;1432742;90;21667;-80
2022/02/22 01:40:08;;;;;;;35.80;19.47;;;;;;;0.47;89.37;99339.80;1446223;90;23838;-80
2022/02/22 01:42:35;;;;;;;35.23;18.17;;;;;;;0.46;89.64;99338.94;1434749;90;21531;-79
2022/02/22 01:45:04;;;;;;;35.40;19.07;;;;;;;0.45;89.28;99340.72;1444310;90;21669;-79
2022/02/22 01:47:30;;;;;;;40.30;21.07;;;;;;;0.44;89.37;99341.67;1437873;90;23551;-79
2022/02/22 01:49:57;;;;;;;36.93;19.87;;;;;;;0.40;89.75;99337.64;1442920;90;21599;-80
2022/02/22 01:52:23;;;;;;;40.33;22.43;;;;;;;0.36;89.65;99337.95;1443211;90;21677;-80
2022/02/22 01:54:49;;;;;;;37.73;21.10;;;;;;;0.31;89.61;99347.38;1439927;90;22813;-80
2022/02/22 01:57:18;;;;;;;40.07;20.80;;;;;;;0.30;89.45;99345.73;1442475;90;21480;-80
2022/02/22 01:59:46;;;;;;;61.27;29.50;;;;;;;0.31;89.57;99343.47;1432324;90;22523;-80
2022/02/22 02:02:13;;;;;;;95.60;39.83;;;;;;;0.31;89.47;99343.47;1419024;92;22256;-81
2022/02/22 02:04:39;;;;;;;81.70;34.40;;;;;;;0.30;89.59;99344.90;1430054;92;21320;-80
2022/02/22 02:07:07;;;;;;;56.28;27.42;;;;;;;0.25;89.54;99349.12;1426634;92;21482;-80
2022/02/22 02:09:33;;;;;;;47.62;25.68;;;;;;;0.21;90.49;99347.69;1431068;92;22524;-80
2022/02/22 02:12:00;;;;;;;47.05;23.45;;;;;;;0.19;90.54;99346.95;1421777;91;21483;-80
2022/02/22 02:14:28;;;;;;;40.50;21.33;;;;;;;0.21;90.74;99355.02;1430830;92;22243;-80
2022/02/22 02:16:57;;;;;;;34.97;20.30;;;;;;;0.22;90.97;99350.64;1419179;92;22296;-80
2022/02/22 02:19:24;;;;;;;40.17;21.62;;;;;;;0.24;90.99;99355.27;1428160;92;22924;-80
2022/02/22 02:21:51;;;;;;;37.38;21.52;;;;;;;0.26;91.04;99353.84;1415053;92;21329;-80
2022/02/22 02:24:22;;;;;;;35.73;22.15;;;;;;;0.26;91.13;99356.45;1419732;92;21905;-81
2022/02/22 02:26:51;;;;;;;30.50;17.50;;;;;;;0.26;91.24;99356.45;1423736;92;21579;-80
2022/02/22 02:29:21;;;;;;;32.48;19.02;;;;;;;0.28;91.54;99358.48;1417337;92;21973;-80
2022/02/22 02:31:51;;;;;;;35.87;19.70;;;;;;;0.29;91.48;99353.19;1420477;92;21335;-80
2022/02/22 02:34:24;;;;;;;34.05;18.57;;;;;;;0.33;91.83;99349.41;1419388;91;22094;-80
2022/02/22 02:36:51;;;;;;;36.30;21.00;;;;;;;0.34;92.68;99356.74;1414470;92;21552;-80
2022/02/22 02:39:18;;;;;;;37.35;20.12;;;;;;;0.34;92.42;99354.97;1421615;92;21401;-80
2022/02/22 02:41:46;;;;;;;53.15;26.50;;;;;;;0.31;92.73;99359.09;1411274;92;21387;-80
2022/02/22 02:44:16;;;;;;;56.23;29.07;;;;;;;0.32;92.89;99371.19;1426056;92;21563;-80
2022/02/22 02:46:43;;;;;;;47.40;24.45;;;;;;;0.30;94.01;99378.73;1423213;91;22755;-80
2022/02/22 02:49:12;;;;;;;44.10;22.07;;;;;;;0.30;93.54;99378.26;1416327;92;22445;-80
2022/02/22 02:51:39;;;;;;;52.40;23.85;;;;;;;0.33;93.36;99378.52;1416149;92;22505;-79
2022/02/22 02:54:06;;;;;;;39.92;21.45;;;;;;;0.34;93.23;99377.56;1420405;92;21409;-80
2022/02/22 02:56:33;;;;;;;50.33;24.17;;;;;;;0.32;93.37;99377.69;1426060;92;21357;-80
2022/02/22 02:59:03;;;;;;;45.57;22.37;;;;;;;0.30;93.86;99383.47;1428088;90;22087;-81
2022/02/22 03:01:31;;;;;;;36.48;20.05;;;;;;;0.26;94.64;99387.67;1445537;90;21501;-81
2022/02/22 03:03:58;;;;;;;34.40;18.77;;;;;;;0.25;94.15;99385.55;1450751;90;23636;-81
2022/02/22 03:06:24;;;;;;;33.87;20.30;;;;;;;0.24;94.28;99383.90;1444985;90;21373;-80
2022/02/22 03:08:50;;;;;;;33.87;19.30;;;;;;;0.24;94.71;99390.41;1427865;90;22672;-80
2022/02/22 03:11:16;;;;;;;33.90;19.67;;;;;;;0.23;94.28;99386.12;1458353;90;21596;-81
2022/02/22 03:13:43;;;;;;;33.05;20.88;;;;;;;0.22;94.40;99389.20;1452833;90;22402;-80
2022/02/22 03:16:10;;;;;;;31.57;20.43;;;;;;;0.18;94.45;99387.76;1452087;90;21329;-81
2022/02/22 03:18:36;;;;;;;30.47;19.87;;;;;;;0.17;94.11;99385.25;1438221;90;22015;-79
2022/02/22 03:21:03;;;;;;;30.77;19.17;;;;;;;0.18;94.02;99394.74;1445386;90;22508;-80
2022/02/22 03:23:30;;;;;;;29.43;18.20;;;;;;;0.16;94.21;99396.61;1421357;90;21807;-80
2022/02/22 03:25:56;;;;;;;31.23;18.17;;;;;;;0.16;93.98;99400.03;1444604;90;21833;-80
2022/02/22 03:28:22;;;;;;;35.52;20.02;;;;;;;0.15;94.28;99406.66;1442663;90;21918;-80
2022/02/22 03:30:49;;;;;;;31.62;18.20;;;;;;;0.12;94.55;99409.00;1451174;90;21447;-80
2022/02/22 03:33:16;;;;;;;30.57;17.75;;;;;;;0.13;94.35;99417.64;1452006;90;21505;-80
2022/02/22 03:35:43;;;;;;;24.75;15.85;;;;;;;0.15;94.18;99420.97;1444622;90;21439;-80
2022/02/22 03:38:10;;;;;;;24.27;15.13;;;;;;;0.16;94.33;99423.45;1453990;90;21402;-80
2022/02/22 03:40:37;;;;;;;26.90;15.80;;;;;;;0.19;93.97;99417.20;1442952;90;21958;-80
2022/02/22 03:43:05;;;;;;;30.83;16.73;;;;;;;0.20;93.75;99424.06;1448395;90;21856;-80
2022/02/22 03:45:32;;;;;;;29.10;16.50;;;;;;;0.19;93.76;99423.72;1442064;90;21872;-80
2022/02/22 03:47:58;;;;;;;29.17;15.63;;;;;;;0.14;93.58;99425.32;1452696;90;22128;-80
2022/02/22 03:50:25;;;;;;;28.10;16.00;;;;;;;0.13;93.29;99423.67;1448354;90;21739;-80
2022/02/22 03:52:52;;;;;;;23.03;14.47;;;;;;;0.13;93.01;99430.17;1448174;90;24048;-80
2022/02/22 03:55:19;;;;;;;21.87;13.78;;;;;;;0.14;92.83;99431.00;1442832;90;22149;-80
2022/02/22 03:57:46;;;;;;;27.27;15.70;;;;;;;0.15;92.68;99433.52;1435215;90;21320;-80
2022/02/22 04:00:18;;;;;;;26.40;13.90;;;;;;;0.16;92.52;99433.03;1452158;90;22558;-80
2022/02/22 04:02:45;;;;;;;33.65;16.50;;;;;;;0.14;92.34;99447.91;1447301;90;21322;-80
2022/02/22 04:05:13;;;;;;;31.15;16.73;;;;;;;0.10;91.99;99449.08;1430390;90;21322;-80
2022/02/22 04:07:39;;;;;;;28.27;15.30;;;;;;;0.05;91.64;99457.66;1450020;90;21561;-80
2022/02/22 04:10:07;;;;;;;26.65;15.53;;;;;;;-0.02;91.50;99455.47;1447334;90;22380;-80
2022/02/22 04:12:34;;;;;;;29.20;16.10;;;;;;;-0.07;91.46;99463.23;1452618;90;21521;-80
2022/02/22 04:15:01;;;;;;;29.45;16.73;;;;;;;-0.14;91.73;99466.72;1444063;90;21410;-81
2022/02/22 04:17:27;;;;;;;30.35;16.67;;;;;;;-0.20;91.98;99459.33;1447059;90;21409;-81
2022/02/22 04:19:53;;;;;;;30.82;17.35;;;;;;;-0.23;92.28;99462.14;1449581;90;21486;-81
2022/02/22 04:22:20;;;;;;;34.78;18.60;;;;;;;-0.25;92.47;99458.80;1448548;90;22320;-81
2022/02/22 04:24:47;;;;;;;38.83;18.55;;;;;;;-0.29;92.58;99462.08;1446890;90;22541;-81
2022/02/22 04:27:14;;;;;;;32.25;17.00;;;;;;;-0.31;92.47;99464.41;1441684;90;21366;-81
2022/02/22 04:29:40;;;;;;;28.77;16.23;;;;;;;-0.33;92.26;99462.38;1447793;90;22364;-81
2022/02/22 04:32:07;;;;;;;29.80;15.32;;;;;;;-0.33;92.16;99464.97;1445535;90;22475;-81
2022/02/22 04:34:34;;;;;;;26.87;14.43;;;;;;;-0.34;91.98;99463.31;1446994;90;21394;-80
2022/02/22 04:37:00;;;;;;;24.95;14.33;;;;;;;-0.31;91.97;99460.51;1441990;90;21424;-80
2022/02/22 04:39:26;;;;;;;25.62;14.45;;;;;;;-0.26;92.01;99464.91;1451416;90;22258;-80
2022/02/22 04:41:53;;;;;;;26.60;13.50;;;;;;;-0.25;92.09;99462.70;1449859;90;21578;-80
2022/02/22 04:44:20;;;;;;;21.60;13.60;;;;;;;-0.31;91.89;99470.91;1451336;90;22260;-80
2022/02/22 04:46:47;;;;;;;23.50;13.72;;;;;;;-0.32;91.70;99466.63;1438837;90;21476;-80
2022/02/22 04:49:14;;;;;;;20.55;12.37;;;;;;;-0.32;91.63;99474.42;1444333;90;21389;-80
2022/02/22 04:51:43;;;;;;;23.50;12.70;;;;;;;-0.37;91.46;99467.42;1447547;90;22327;-80
2022/02/22 04:54:10;;;;;;;19.60;11.73;;;;;;;-0.39;91.33;99477.08;1439536;90;21505;-80
2022/02/22 04:56:37;;;;;;;19.95;11.75;;;;;;;-0.42;91.45;99473.38;1428741;90;22437;-80
2022/02/22 04:59:04;;;;;;;21.25;13.70;;;;;;;-0.48;91.45;99476.75;1450395;90;21558;-79
2022/02/22 05:01:30;;;;;;;23.85;13.90;;;;;;;-0.54;91.93;99478.45;1448143;90;21469;-79
2022/02/22 05:03:56;;;;;;;20.50;10.30;;;;;;;-0.59;92.25;99484.88;1425586;90;21471;-80
2022/02/22 05:06:22;;;;;;;22.22;12.95;;;;;;;-0.65;92.70;99483.52;1452148;90;21543;-79
2022/02/22 05:08:49;;;;;;;18.95;11.60;;;;;;;-0.66;92.26;99487.50;1448470;90;21343;-79
2022/02/22 05:11:15;;;;;;;23.75;11.12;;;;;;;-0.67;92.22;99491.86;1428809;90;21583;-80
2022/02/22 05:13:41;;;;;;;21.90;11.38;;;;;;;-0.64;92.18;99489.54;1448316;90;22392;-79
2022/02/22 05:16:07;;;;;;;14.73;10.03;;;;;;;-0.63;92.22;99489.45;1446854;90;21409;-80
2022/02/22 05:18:34;;;;;;;15.23;10.00;;;;;;;-0.65;92.30;99486.11;1429541;90;21446;-80
2022/02/22 05:21:00;;;;;;;17.87;10.32;;;;;;;-0.66;92.27;99488.36;1445152;90;21446;-80
2022/02/22 05:23:35;;;;;;;17.40;10.78;;;;;;;-0.66;92.07;99487.05;1440992;90;21462;-80
2022/02/22 05:26:03;;;;;;;19.70;11.18;;;;;;;-0.62;92.07;99487.68;1448903;90;21321;-80
2022/02/22 05:28:30;;;;;;;22.60;11.45;;;;;;;-0.61;91.79;99493.23;1449478;90;22189;-80
2022/02/22 05:30:56;;;;;;;18.48;11.65;;;;;;;-0.60;91.79;99496.22;1446325;90;22363;-80
2022/02/22 05:33:23;;;;;;;18.32;11.00;;;;;;;-0.58;91.87;99498.23;1449583;90;21388;-80
2022/02/22 05:35:53;;;;;;;24.57;10.78;;;;;;;-0.59;92.03;99509.10;1451267;90;21375;-80
2022/02/22 05:38:20;;;;;;;19.70;11.33;;;;;;;-0.63;92.00;99515.44;1444214;90;21463;-80
2022/02/22 05:40:46;;;;;;;80.62;35.78;;;;;;;-0.64;91.89;99510.33;1450470;90;21380;-80
2022/02/22 05:43:13;;;;;;;42.35;22.22;;;;;;;-0.67;92.05;99517.85;1448159;90;21353;-80
2022/02/22 05:45:40;;;;;;;38.33;20.48;;;;;;;-0.70;91.65;99515.45;1442627;90;22236;-80
2022/02/22 05:48:06;;;;;;;37.45;19.27;;;;;;;-0.70;91.75;99521.95;1442189;90;21486;-80
2022/02/22 05:50:33;;;;;;;33.85;18.35;;;;;;;-0.71;92.01;99526.79;1442553;90;21373;-80
2022/02/22 05:52:59;;;;;;;23.57;12.98;;;;;;;-0.71;91.49;99531.98;1449901;90;21426;-79
2022/02/22 05:55:27;;;;;;;19.05;11.95;;;;;;;-0.72;91.47;99544.59;1444463;90;22248;-80
2022/02/22 05:57:54;;;;;;;19.35;12.40;;;;;;;-0.72;91.57;99544.59;1445799;90;22173;-80
2022/02/22 06:00:20;;;;;;;22.50;12.60;;;;;;;-0.75;91.47;99540.89;1447520;90;21638;-80
2022/02/22 06:02:48;;;;;;;24.20;12.28;;;;;;;-0.76;91.60;99543.95;1418467;90;21460;-81
2022/02/22 06:05:14;;;;;;;215.92;88.47;;;;;;;-0.75;91.75;99543.05;1434557;91;23455;-81
2022/02/22 06:07:40;;;;;;;132.10;59.38;;;;;;;-0.71;91.96;99554.08;1434698;90;21376;-81
2022/02/22 06:10:08;;;;;;;144.72;63.00;;;;;;;-0.67;91.70;99546.91;1424525;91;21435;-81
2022/02/22 06:12:35;;;;;;;113.83;50.63;;;;;;;-0.64;91.69;99563.13;1427023;91;21538;-80
2022/02/22 06:15:01;;;;;;;30.75;16.80;;;;;;;-0.60;91.78;99559.42;1425485;91;21897;-80
2022/02/22 06:17:27;;;;;;;34.18;18.27;;;;;;;-0.54;91.77;99557.73;1426359;90;21420;-80
2022/02/22 06:19:55;;;;;;;32.53;17.70;;;;;;;-0.47;91.65;99573.28;1422194;91;21387;-80
2022/02/22 06:22:21;;;;;;;28.98;15.63;;;;;;;-0.41;91.55;99572.06;1430734;91;21368;-80
2022/02/22 06:24:47;;;;;;;159.13;86.20;;;;;;;-0.36;91.44;99576.03;1424807;91;21435;-80
2022/02/22 06:27:13;;;;;;;52.17;30.17;;;;;;;-0.35;91.07;99576.03;1417523;91;21368;-80
2022/02/22 06:29:40;;;;;;;95.30;53.75;;;;;;;-0.27;91.12;99581.58;1417037;91;22236;-81
2022/02/22 06:32:07;;;;;;;25.10;15.55;;;;;;;-0.15;91.42;99591.64;1427462;91;21449;-81
2022/02/22 06:34:33;;;;;;;22.50;14.10;;;;;;;-0.03;91.61;99593.00;1426930;91;21281;-81
2022/02/22 06:37:24;;;;;;;21.02;14.07;;;;;;;0.06;91.48;99595.90;1425975;91;23111;-82
2022/02/22 06:39:50;;;;;;;24.67;15.32;;;;;;;0.15;91.44;99597.92;1427163;91;21428;-81
2022/02/22 06:42:16;;;;;;;51.27;28.07;;;;;;;0.22;91.39;99600.47;1424604;90;21445;-81
2022/02/22 06:44:42;;;;;;;53.20;30.10;;;;;;;0.32;91.42;99608.05;1408180;91;21398;-81
2022/02/22 06:47:08;;;;;;;36.77;20.43;;;;;;;0.42;91.17;99606.95;1420286;91;22552;-81
2022/02/22 06:49:34;;;;;;;21.90;11.13;;;;;;;0.47;90.66;99607.95;1419042;91;22517;-82
2022/02/22 06:52:00;;;;;;;20.60;9.50;;;;;;;0.54;90.58;99617.00;1425946;90;21638;-81
2022/02/22 06:54:26;;;;;;;13.83;8.50;;;;;;;0.60;90.35;99627.00;1433515;91;21804;-81
2022/02/22 06:56:52;;;;;;;15.23;8.50;;;;;;;0.70;90.51;99633.73;1426409;91;21797;-81
2022/02/22 06:59:19;;;;;;;13.37;7.43;;;;;;;0.83;90.67;99641.89;1396081;92;21591;-81
2022/02/22 07:01:45;;;;;;;14.70;9.13;;;;;;;0.98;90.20;99641.78;1413707;92;21786;-81
2022/02/22 07:04:11;;;;;;;16.57;9.40;;;;;;;1.07;89.53;99642.00;1421548;90;21810;-81
2022/02/22 07:06:38;;;;;;;18.37;11.17;;;;;;;1.16;89.07;99641.83;1421521;92;21908;-80
2022/02/22 07:09:06;;;;;;;19.23;10.77;;;;;;;1.22;88.54;99637.48;1411100;92;21841;-80
2022/02/22 07:11:33;;;;;;;16.07;8.47;;;;;;;1.26;88.22;99646.74;1423979;91;21952;-81
2022/02/22 07:13:59;;;;;;;17.03;9.10;;;;;;;1.34;87.99;99649.66;1418262;92;21734;-81
2022/02/22 07:16:25;;;;;;;17.93;9.00;;;;;;;1.45;87.80;99653.29;1392817;91;21522;-81
2022/02/22 07:18:52;;;;;;;15.40;8.83;;;;;;;1.57;87.53;99655.84;1437319;90;22577;-81
2022/02/22 07:21:18;;;;;;;17.13;9.03;;;;;;;1.66;86.82;99663.97;1408211;91;21673;-81
2022/02/22 07:23:44;;;;;;;18.43;9.30;;;;;;;1.76;87.26;99664.52;1432887;91;22709;-81
2022/02/22 07:26:10;;;;;;;15.67;8.40;;;;;;;1.93;87.39;99667.69;1427158;90;22314;-83
2022/02/22 07:28:36;;;;;;;15.90;8.97;;;;;;;2.02;86.74;99673.55;1431034;91;22828;-85
2022/02/22 07:31:02;;;;;;;14.63;8.70;;;;;;;2.14;87.00;99670.03;1428235;90;22184;-85
2022/02/22 07:33:29;;;;;;;16.70;9.33;;;;;;;2.30;86.81;99675.42;1418510;90;23811;-85
2022/02/22 07:35:55;;;;;;;19.20;11.67;;;;;;;2.46;85.59;99687.72;1420935;89;21796;-86
2022/02/22 07:38:55;;;;;;;15.43;9.97;;;;;;;2.49;83.73;99686.18;1423004;90;21800;-86
2022/02/22 07:41:22;;;;;;;19.63;10.83;;;;;;;2.58;84.07;99689.41;1420260;91;21830;-84
2022/02/22 07:43:51;;;;;;;19.27;9.93;;;;;;;2.62;82.70;99697.88;1427775;91;21628;-82
2022/02/22 07:46:18;;;;;;;21.37;9.40;;;;;;;2.63;82.27;99699.05;1428146;90;21996;-81
2022/02/22 07:48:49;;;;;;;16.47;9.10;;;;;;;2.70;82.82;99697.66;1412371;91;21940;-82
2022/02/22 07:51:18;;;;;;;13.85;7.83;;;;;;;2.88;83.01;99703.75;1398583;91;22705;-83
2022/02/22 07:53:48;;;;;;;15.27;7.63;;;;;;;3.01;82.31;99703.16;1420471;91;21419;-82
2022/02/22 07:56:16;;;;;;;15.80;8.38;;;;;;;3.15;80.96;99704.23;1432627;91;22022;-82
2022/02/22 07:58:43;;;;;;;11.63;7.00;;;;;;;3.41;79.95;99719.70;1422884;91;21367;-81
2022/02/22 08:01:12;;;;;;;15.27;8.77;;;;;;;3.47;79.73;99715.78;1424271;91;22036;-81
2022/02/22 08:03:43;;;;;;;18.87;10.33;;;;;;;3.58;79.69;99718.39;1428311;90;21942;-82
2022/02/22 08:06:08;;;;;;;15.37;9.10;;;;;;;3.75;79.28;99730.16;1439116;90;22332;-82
2022/02/22 08:08:34;;;;;;;13.83;7.67;;;;;;;3.75;79.28;99730.16;1436077;90;22088;-83
2022/02/22 08:11:01;;;;;;;17.83;9.63;;;;;;;3.87;78.04;99731.80;1444383;90;23060;-83
2022/02/22 08:13:27;;;;;;;20.07;10.20;;;;;;;4.00;77.60;99731.19;1437008;90;22315;-83
2022/02/22 08:15:53;;;;;;;17.80;9.97;;;;;;;4.16;78.48;99738.63;1420758;90;23380;-83
2022/02/22 08:18:19;;;;;;;22.40;11.67;;;;;;;4.30;77.82;99739.66;1437407;90;23017;-83
2022/02/22 08:20:46;;;;;;;34.80;13.00;;;;;;;4.43;78.34;99746.06;1436703;90;22089;-85
2022/02/22 08:23:12;;;;;;;18.93;11.87;;;;;;;4.59;78.23;99761.36;1432600;91;22136;-85
2022/02/22 08:25:38;;;;;;;23.77;13.00;;;;;;;4.70;76.53;99757.37;1436138;91;22245;-86
2022/02/22 08:28:12;;;;;;;21.50;11.37;;;;;;;4.88;77.39;99762.88;1436128;90;22217;-85
2022/02/22 08:30:38;;;;;;;21.10;10.23;;;;;;;5.03;76.40;99758.14;1418581;91;21527;-85
2022/02/22 08:33:07;;;;;;;19.23;10.40;;;;;;;5.23;75.81;99764.83;1415793;90;21548;-85
2022/02/22 08:35:34;;;;;;;20.73;11.07;;;;;;;5.31;73.41;99755.83;1444675;90;21464;-86
2022/02/22 08:38:02;;;;;;;13.43;7.13;;;;;;;5.46;74.11;99762.39;1442258;89;21471;-86
2022/02/22 08:40:29;;;;;;;15.77;9.40;;;;;;;5.46;70.08;99769.44;1461493;89;21338;-85
2022/02/22 08:42:55;;;;;;;20.43;10.37;;;;;;;5.38;69.65;99773.56;1455642;89;21612;-85
2022/02/22 08:45:25;;;;;;;15.67;7.87;;;;;;;5.53;72.14;99773.22;1428339;90;22433;-85
2022/02/22 08:47:54;;;;;;;15.57;9.50;;;;;;;5.52;68.90;99776.30;1441709;90;22971;-84
2022/02/22 08:50:21;;;;;;;18.87;10.40;;;;;;;5.59;70.31;99781.88;1441014;90;21574;-85
2022/02/22 08:52:47;;;;;;;24.17;13.37;;;;;;;5.65;71.56;99778.23;1436712;90;21479;-84
2022/02/22 08:55:14;;;;;;;21.43;13.80;;;;;;;5.65;72.04;99788.73;1433027;90;21436;-85
2022/02/22 08:57:41;;;;;;;18.73;11.63;;;;;;;5.78;72.61;99788.98;1440958;90;21524;-84
2022/02/22 09:00:10;;;;;;;20.87;10.97;;;;;;;5.71;71.24;99782.61;1438182;90;21650;-84
2022/02/22 09:02:43;;;;;;;21.17;11.33;;;;;;;5.78;72.89;99788.53;1432340;90;22294;-84
2022/02/22 09:05:10;;;;;;;18.37;11.43;;;;;;;5.93;73.37;99790.77;1422801;92;22561;-85
2022/02/22 09:07:37;;;;;;;14.20;9.33;;;;;;;6.07;71.52;99793.91;1423682;92;21377;-84
2022/02/22 09:10:04;;;;;;;17.43;9.00;;;;;;;6.17;68.63;99790.47;1393083;92;22386;-85
2022/02/22 09:12:32;;;;;;;18.67;10.63;;;;;;;6.22;67.93;99798.30;1430321;90;23968;-86
2022/02/22 09:14:58;;;;;;;14.63;8.67;;;;;;;6.34;70.84;99801.63;1423113;92;21385;-84
2022/02/22 09:17:24;;;;;;;16.60;10.90;;;;;;;6.26;67.60;99811.50;1397490;91;21481;-82
2022/02/22 09:19:50;;;;;;;20.80;11.63;;;;;;;6.21;66.38;99816.32;1410211;91;21585;-82
2022/02/22 09:22:17;;;;;;;20.57;12.00;;;;;;;6.25;68.93;99822.16;1419511;91;21451;-82
2022/02/22 09:24:43;;;;;;;16.27;11.00;;;;;;;6.25;68.67;99822.98;1425394;91;21399;-83
2022/02/22 09:27:09;;;;;;;18.67;13.20;;;;;;;6.22;70.39;99829.00;1426883;91;21339;-83
2022/02/22 09:29:36;;;;;;;17.67;11.63;;;;;;;5.89;72.17;99838.80;1427756;91;21377;-84
2022/02/22 09:32:03;;;;;;;16.13;11.80;;;;;;;5.71;72.06;99837.75;1418522;90;21651;-84
2022/02/22 09:34:30;;;;;;;17.90;12.93;;;;;;;6.03;72.42;99837.16;1421776;91;22390;-84
2022/02/22 09:37:02;;;;;;;17.53;12.50;;;;;;;6.04;70.29;99827.47;1417657;91;21428;-84
2022/02/22 09:39:25;;;;;;;16.73;11.10;;;;;;;6.62;70.04;99825.00;1403536;91;21583;-84
2022/02/22 09:41:51;;;;;;;18.27;12.23;;;;;;;6.94;66.89;99826.05;1426152;91;21429;-84
2022/02/22 09:44:18;;;;;;;15.40;11.20;;;;;;;7.67;67.44;99838.17;1425292;91;21554;-84
2022/02/22 09:46:45;;;;;;;16.73;11.63;;;;;;;8.00;64.68;99838.63;1424832;91;21401;-83
2022/02/22 09:49:12;;;;;;;16.80;11.77;;;;;;;8.40;61.59;99848.05;1416284;91;21496;-84
2022/02/22 09:51:38;;;;;;;14.03;10.43;;;;;;;8.79;60.60;99850.41;1424755;89;21820;-84
2022/02/22 09:54:04;;;;;;;15.20;10.97;;;;;;;8.90;57.08;99852.00;1425965;89;21422;-84
2022/02/22 09:56:30;;;;;;;16.27;11.33;;;;;;;9.37;59.13;99857.84;1435557;89;22056;-84
2022/02/22 09:58:57;;;;;;;17.23;10.67;;;;;;;9.81;58.45;99861.78;1428576;89;21685;-84
2022/02/22 10:01:24;;;;;;;11.07;8.47;;;;;;;9.99;54.40;99865.67;1423222;89;22342;-84
2022/02/22 10:03:59;;;;;;;14.37;10.63;;;;;;;9.88;54.92;99865.44;1425349;89;21398;-83
2022/02/22 10:06:26;;;;;;;13.60;9.00;;;;;;;10.02;54.64;99875.11;1450298;89;21547;-85
2022/02/22 10:08:56;;;;;;;11.73;9.30;;;;;;;9.96;54.94;99875.73;1436162;89;23532;-85
2022/02/22 10:11:23;;;;;;;10.63;8.23;;;;;;;9.53;53.65;99877.45;1442776;89;21457;-84
2022/02/22 10:13:51;;;;;;;11.03;9.13;;;;;;;9.63;54.50;99884.27;1439501;89;21979;-84
2022/02/22 10:16:18;;;;;;;13.90;10.23;;;;;;;9.79;54.34;99881.42;1442190;89;21337;-84
2022/02/22 10:18:53;;;;;;;14.73;10.33;;;;;;;9.76;54.85;99880.41;1437526;89;21620;-84
2022/02/22 10:21:21;;;;;;;14.80;10.90;;;;;;;9.65;54.97;99881.48;1434907;89;21592;-84
2022/02/22 10:23:48;;;;;;;14.60;10.53;;;;;;;9.48;55.65;99892.42;1440737;89;21436;-84
2022/02/22 10:26:27;;;;;;;16.43;12.27;;;;;;;9.91;57.33;99893.38;1417011;89;23506;-83
2022/02/22 10:28:54;;;;;;;12.90;10.13;;;;;;;9.65;56.21;99897.34;1440284;89;22344;-83
2022/02/22 10:31:33;;;;;;;19.00;11.00;;;;;;;9.93;55.02;99900.17;1423770;90;21552;-86
2022/02/22 10:34:00;;;;;;;15.80;12.73;;;;;;;9.73;56.15;99906.65;1432660;90;21656;-85
2022/02/22 10:36:34;;;;;;;19.67;11.30;;;;;;;10.05;57.30;99906.52;1425334;90;23003;-85
2022/02/22 10:39:07;;;;;;;13.10;10.33;;;;;;;9.94;55.01;99913.71;1416517;90;21404;-84
2022/02/22 10:41:49;;;;;;;14.70;12.20;;;;;;;9.21;56.47;99929.02;1441650;90;21522;-83
2022/02/22 10:44:32;;;;;;;19.33;13.30;;;;;;;9.60;60.97;99922.06;1438141;90;21448;-83
2022/02/22 10:47:04;;;;;;;18.30;12.63;;;;;;;9.68;59.77;99926.09;1440938;90;22544;-83
2022/02/22 10:49:33;;;;;;;14.13;11.03;;;;;;;9.97;60.23;99913.07;1438195;90;21456;-82
2022/02/22 10:52:05;;;;;;;12.40;9.77;;;;;;;9.61;60.55;99923.72;1444436;90;22492;-82
2022/02/22 10:54:31;;;;;;;12.07;9.53;;;;;;;9.14;58.16;99926.63;1436022;90;21685;-83
2022/02/22 10:56:58;;;;;;;13.03;9.77;;;;;;;8.87;58.08;99929.66;1434561;90;21544;-82
2022/02/22 10:59:26;;;;;;;17.07;12.60;;;;;;;9.25;60.40;99925.91;1420135;90;21390;-83
2022/02/22 11:01:55;;;;;;;21.03;14.73;;;;;;;9.09;60.73;99927.55;1385596;89;22717;-82
2022/02/22 11:04:21;;;;;;;20.33;14.30;;;;;;;8.90;61.85;99928.54;1384860;89;21266;-82
2022/02/22 11:06:48;;;;;;;23.73;16.63;;;;;;;8.90;61.72;99934.64;1492722;89;22402;-82
2022/02/22 11:09:18;;;;;;;27.17;16.03;;;;;;;8.90;61.23;99939.92;1409330;92;22506;-82
2022/02/22 11:12:02;;;;;;;;;;;;;;;8.83;62.51;99941.47;1422007;92;21611;-82
2022/02/22 11:14:32;;;;;;;22.27;15.60;;;;;;;8.84;62.68;99948.43;1409577;92;20422;-82
2022/02/22 11:17:02;;;;;;;23.13;15.50;;;;;;;8.71;63.08;99943.98;1413335;93;22653;-82
2022/02/22 11:19:38;;;;;;;29.50;17.67;;;;;;;8.48;62.92;99957.55;1424099;89;23415;-82
2022/02/22 11:22:19;;;;;;;34.20;19.37;;;;;;;8.11;63.74;99957.05;1430191;91;21523;-82
2022/02/22 11:24:52;;;;;;;23.95;15.03;;;;;;;8.30;64.20;99955.31;1426849;91;21426;-82
2022/02/22 11:27:38;;;;;;;32.13;18.07;;;;;;;8.03;65.09;99964.84;1425496;91;21915;-82